createdAt,value
2022-12-01T00:00:58.613Z,288.00
2022-12-01T00:01:58.749Z,292.70
2022-12-01T00:02:58.652Z,289.80
2022-12-01T00:03:58.595Z,296.90
2022-12-01T00:04:58.568Z,305.00
2022-12-01T00:05:58.555Z,296.30
2022-12-01T00:06:58.538Z,272.10
2022-12-01T00:07:58.596Z,279.80
2022-12-01T00:08:58.526Z,266.90
2022-12-01T00:09:58.514Z,281.50
2022-12-01T00:10:58.848Z,281.90
2022-12-01T00:11:58.476Z,280.40
2022-12-01T00:12:58.455Z,286.00
2022-12-01T00:13:58.899Z,280.70
2022-12-01T00:14:58.893Z,292.00
2022-12-01T00:15:59.006Z,295.40
2022-12-01T00:16:58.476Z,294.00
2022-12-01T00:17:58.399Z,298.30
2022-12-01T00:18:58.390Z,306.80
2022-12-01T00:19:58.611Z,303.10
2022-12-01T00:20:58.357Z,316.10
2022-12-01T00:21:58.455Z,315.60
2022-12-01T00:22:58.460Z,323.10
2022-12-01T00:23:58.528Z,322.70
2022-12-01T00:24:58.302Z,323.90
2022-12-01T00:25:58.292Z,318.30
2022-12-01T00:26:58.271Z,319.20
2022-12-01T00:27:58.511Z,306.90
2022-12-01T00:28:58.272Z,294.50
2022-12-01T00:29:58.512Z,284.70
2022-12-01T00:30:58.244Z,270.80
2022-12-01T00:31:58.266Z,274.20
2022-12-01T00:32:58.214Z,247.50
2022-12-01T00:33:58.199Z,259.30
2022-12-01T00:34:58.484Z,248.60
2022-12-01T00:35:58.161Z,242.00
2022-12-01T00:36:58.140Z,254.50
2022-12-01T00:37:58.480Z,245.50
2022-12-01T00:38:58.122Z,251.20
2022-12-01T00:39:58.122Z,241.70
2022-12-01T00:40:58.095Z,240.00
2022-12-01T00:41:58.088Z,247.00
2022-12-01T00:42:58.072Z,249.70
2022-12-01T00:43:58.063Z,249.40
2022-12-01T00:44:58.043Z,248.40
2022-12-01T00:45:58.124Z,256.00
2022-12-01T00:46:58.004Z,237.60
2022-12-01T00:47:58.007Z,248.30
2022-12-01T00:48:57.990Z,262.00
2022-12-01T00:49:58.944Z,259.60
2022-12-01T00:50:57.961Z,268.20
2022-12-01T00:51:57.947Z,267.10
2022-12-01T00:52:57.931Z,267.90
2022-12-01T00:53:57.930Z,255.80
2022-12-01T00:54:57.917Z,256.70
2022-12-01T00:55:57.906Z,265.60
2022-12-01T00:56:57.886Z,260.10
2022-12-01T00:57:57.875Z,272.80
2022-12-01T00:58:57.865Z,272.30
2022-12-01T00:59:57.856Z,271.20
2022-12-01T01:00:57.861Z,271.80
2022-12-01T01:01:57.896Z,276.20
2022-12-01T01:02:57.806Z,256.50
2022-12-01T01:03:57.807Z,269.90
2022-12-01T01:04:57.776Z,279.00
2022-12-01T01:05:57.767Z,270.00
2022-12-01T01:06:57.757Z,264.30
2022-12-01T01:07:57.772Z,268.80
2022-12-01T01:08:57.739Z,263.10
2022-12-01T01:09:57.717Z,271.20
2022-12-01T01:10:57.697Z,262.20
2022-12-01T01:11:57.696Z,255.20
2022-12-01T01:12:57.668Z,262.70
2022-12-01T01:13:57.681Z,261.40
2022-12-01T01:14:57.653Z,265.80
2022-12-01T01:15:57.817Z,268.20
2022-12-01T01:16:57.662Z,264.50
2022-12-01T01:17:57.871Z,237.90
2022-12-01T01:18:57.599Z,242.70
2022-12-01T01:19:57.590Z,252.70
2022-12-01T01:20:57.580Z,247.30
2022-12-01T01:21:57.559Z,253.80
2022-12-01T01:22:57.546Z,253.40
2022-12-01T01:23:57.535Z,245.90
2022-12-01T01:24:57.537Z,270.10
2022-12-01T01:25:57.664Z,256.50
2022-12-01T01:26:57.498Z,259.40
2022-12-01T01:27:57.500Z,252.20
2022-12-01T01:28:57.475Z,256.40
2022-12-01T01:29:57.452Z,261.20
2022-12-01T01:30:57.488Z,253.80
2022-12-01T01:31:57.431Z,268.50
2022-12-01T01:32:57.418Z,257.90
2022-12-01T01:33:57.409Z,264.80
2022-12-01T01:34:57.392Z,264.70
2022-12-01T01:35:57.369Z,272.80
2022-12-01T01:36:57.362Z,275.50
2022-12-01T01:37:57.349Z,272.90
2022-12-01T01:38:57.351Z,275.60
2022-12-01T01:39:57.688Z,277.50
2022-12-01T01:40:57.314Z,275.30
2022-12-01T01:41:57.298Z,272.00
2022-12-01T01:42:57.285Z,276.70
2022-12-01T01:43:57.273Z,259.60
2022-12-01T01:44:57.253Z,278.70
2022-12-01T01:45:57.293Z,261.30
2022-12-01T01:46:57.233Z,254.00
2022-12-01T01:47:57.213Z,247.80
2022-12-01T01:48:57.214Z,244.50
2022-12-01T01:49:57.196Z,224.70
2022-12-01T01:50:57.182Z,229.50
2022-12-01T01:51:57.169Z,224.50
2022-12-01T01:52:57.153Z,222.30
2022-12-01T01:53:57.145Z,252.70
2022-12-01T01:54:57.124Z,254.90
2022-12-01T01:55:57.105Z,255.50
2022-12-01T01:56:57.105Z,256.40
2022-12-01T01:57:57.081Z,242.70
2022-12-01T01:58:57.104Z,238.70
2022-12-01T01:59:57.056Z,242.70
2022-12-01T02:01:18.085Z,242.00
2022-12-01T02:01:57.025Z,255.20
2022-12-01T02:02:57.076Z,227.50
2022-12-01T02:03:57.014Z,232.50
2022-12-01T02:04:57.007Z,233.80
2022-12-01T02:06:01.820Z,238.80
2022-12-01T02:06:57.970Z,250.50
2022-12-01T02:07:57.009Z,262.50
2022-12-01T02:08:56.955Z,260.30
2022-12-01T02:09:56.934Z,249.60
2022-12-01T02:10:56.916Z,259.80
2022-12-01T02:11:56.904Z,266.40
2022-12-01T02:12:56.888Z,249.30
2022-12-01T02:13:56.876Z,251.20
2022-12-01T02:14:56.874Z,265.00
2022-12-01T02:15:56.855Z,255.90
2022-12-01T02:16:56.899Z,246.30
2022-12-01T02:17:56.816Z,238.60
2022-12-01T02:18:56.816Z,226.40
2022-12-01T02:19:56.786Z,237.50
2022-12-01T02:20:56.885Z,263.60
2022-12-01T02:21:56.769Z,252.30
2022-12-01T02:22:56.757Z,229.90
2022-12-01T02:23:57.008Z,222.10
2022-12-01T02:24:56.729Z,226.70
2022-12-01T02:25:57.057Z,218.50
2022-12-01T02:26:56.707Z,222.40
2022-12-01T02:27:56.687Z,216.70
2022-12-01T02:28:56.688Z,231.10
2022-12-01T02:29:56.658Z,237.40
2022-12-01T02:30:56.663Z,234.40
2022-12-01T02:31:56.628Z,229.60
2022-12-01T02:32:56.629Z,238.80
2022-12-01T02:33:56.618Z,241.30
2022-12-01T02:34:56.990Z,248.10
2022-12-01T02:35:56.586Z,242.00
2022-12-01T02:36:56.571Z,255.50
2022-12-01T02:37:56.560Z,267.50
2022-12-01T02:38:56.558Z,272.20
2022-12-01T02:39:56.532Z,278.10
2022-12-01T02:40:56.525Z,256.20
2022-12-01T02:41:56.791Z,268.80
2022-12-01T02:42:56.820Z,267.90
2022-12-01T02:43:56.502Z,252.80
2022-12-01T02:44:56.467Z,267.00
2022-12-01T02:45:56.512Z,252.90
2022-12-01T02:46:56.502Z,252.20
2022-12-01T02:47:56.436Z,258.20
2022-12-01T02:48:56.600Z,260.30
2022-12-01T02:49:56.398Z,255.40
2022-12-01T02:50:56.391Z,272.00
2022-12-01T02:51:56.380Z,252.00
2022-12-01T02:52:56.359Z,236.50
2022-12-01T02:53:56.358Z,247.90
2022-12-01T02:54:57.371Z,240.40
2022-12-01T02:55:56.339Z,248.10
2022-12-01T02:56:56.451Z,227.70
2022-12-01T02:57:56.291Z,252.40
2022-12-01T02:58:56.292Z,263.70
2022-12-01T02:59:56.262Z,258.60
2022-12-01T03:00:56.283Z,238.90
2022-12-01T03:01:56.242Z,234.20
2022-12-01T03:02:56.426Z,228.30
2022-12-01T03:03:56.232Z,208.40
2022-12-01T03:04:56.206Z,210.50
2022-12-01T03:05:56.193Z,215.10
2022-12-01T03:06:57.138Z,213.90
2022-12-01T03:07:56.225Z,206.10
2022-12-01T03:08:56.163Z,216.10
2022-12-01T03:09:56.284Z,210.20
2022-12-01T03:10:56.134Z,199.80
2022-12-01T03:11:56.114Z,192.60
2022-12-01T03:12:56.424Z,195.70
2022-12-01T03:13:56.093Z,198.60
2022-12-01T03:14:56.074Z,193.40
2022-12-01T03:15:56.087Z,193.30
2022-12-01T03:16:56.055Z,203.20
2022-12-01T03:17:56.035Z,195.50
2022-12-01T03:18:56.318Z,201.00
2022-12-01T03:19:56.357Z,183.00
2022-12-01T03:20:57.364Z,197.30
2022-12-01T03:21:55.984Z,191.30
2022-12-01T03:22:55.984Z,209.60
2022-12-01T03:23:55.966Z,278.00
2022-12-01T03:24:55.956Z,356.00
2022-12-01T03:25:56.257Z,570.40
2022-12-01T03:26:57.373Z,344.00
2022-12-01T03:28:20.147Z,417.50
2022-12-01T03:28:56.904Z,447.30
2022-12-01T03:29:56.540Z,407.40
2022-12-01T03:30:55.986Z,400.40
2022-12-01T03:31:56.677Z,361.40
2022-12-01T03:32:56.280Z,385.40
2022-12-01T03:33:57.132Z,393.20
2022-12-01T03:34:55.943Z,379.70
2022-12-01T03:35:55.804Z,354.00
2022-12-01T03:36:55.787Z,323.70
2022-12-01T03:37:55.778Z,438.50
2022-12-01T03:38:55.788Z,419.60
2022-12-01T03:40:00.017Z,242.40
2022-12-01T03:40:56.738Z,212.10
2022-12-01T03:41:55.729Z,265.00
2022-12-01T03:42:55.788Z,219.10
2022-12-01T03:43:56.929Z,197.00
2022-12-01T03:44:59.109Z,211.70
2022-12-01T03:45:57.681Z,244.50
2022-12-01T03:46:57.244Z,291.40
2022-12-01T03:47:57.359Z,280.30
2022-12-01T03:48:56.975Z,278.60
2022-12-01T03:49:58.639Z,278.60
2022-12-01T03:50:56.180Z,226.00
2022-12-01T03:51:59.962Z,236.70
2022-12-01T03:53:01.100Z,328.30
2022-12-01T03:53:55.580Z,235.00
2022-12-01T03:54:55.561Z,319.90
2022-12-01T03:56:03.967Z,413.20
2022-12-01T03:56:56.280Z,351.10
2022-12-01T03:58:01.567Z,382.80
2022-12-01T03:59:00.630Z,364.10
2022-12-01T03:59:57.594Z,462.00
2022-12-01T04:00:56.671Z,508.00
2022-12-01T04:01:56.895Z,335.70
2022-12-01T04:03:14.029Z,264.90
2022-12-01T04:03:58.582Z,477.90
2022-12-01T04:04:56.610Z,459.90
2022-12-01T04:05:56.692Z,459.10
2022-12-01T04:06:55.748Z,411.90
2022-12-01T04:07:57.981Z,437.90
2022-12-01T04:08:55.453Z,500.80
2022-12-01T04:10:00.205Z,432.10
2022-12-01T04:11:15.342Z,587.60
2022-12-01T04:12:39.792Z,609.80
2022-12-01T04:13:00.510Z,583.40
2022-12-01T04:16:20.418Z,614.20
2022-12-01T04:16:40.674Z,664.20
2022-12-01T04:17:42.283Z,641.10
2022-12-01T04:18:31.514Z,660.60
2022-12-01T04:19:53.901Z,694.30
2022-12-01T04:20:41.594Z,447.90
2022-12-01T04:22:41.284Z,575.00
2022-12-01T04:22:57.356Z,642.20
2022-12-01T04:24:22.384Z,654.40
2022-12-01T04:24:48.211Z,506.10
2022-12-01T04:25:50.485Z,461.80
2022-12-01T04:26:46.013Z,448.70
2022-12-01T04:27:47.115Z,360.40
2022-12-01T04:28:47.766Z,407.70
2022-12-01T04:29:47.796Z,359.00
2022-12-01T04:30:59.451Z,358.20
2022-12-01T04:31:46.642Z,442.00
2022-12-01T04:32:48.806Z,369.40
2022-12-01T04:33:48.412Z,416.60
2022-12-01T04:34:52.142Z,417.50
2022-12-01T04:35:53.847Z,498.50
2022-12-01T04:36:51.957Z,551.70
2022-12-01T04:38:38.226Z,535.60
2022-12-01T04:38:56.882Z,591.90
2022-12-01T04:39:47.551Z,605.50
2022-12-01T04:40:47.297Z,477.00
2022-12-01T04:41:51.043Z,438.10
2022-12-01T04:42:47.567Z,448.20
2022-12-01T04:43:46.644Z,356.80
2022-12-01T04:44:46.734Z,394.30
2022-12-01T04:45:46.365Z,381.20
2022-12-01T04:47:16.585Z,291.80
2022-12-01T04:47:56.477Z,419.60
2022-12-01T04:48:52.494Z,457.20
2022-12-01T04:49:46.494Z,463.90
2022-12-01T04:50:47.539Z,375.60
2022-12-01T04:51:51.560Z,380.80
2022-12-01T04:52:45.728Z,472.50
2022-12-01T04:53:51.583Z,370.50
2022-12-01T04:54:54.808Z,435.50
2022-12-01T04:56:01.155Z,515.80
2022-12-01T04:56:45.619Z,467.10
2022-12-01T04:57:45.892Z,379.20
2022-12-01T04:58:47.076Z,376.60
2022-12-01T04:59:47.333Z,364.90
2022-12-01T05:00:49.307Z,366.50
2022-12-01T05:01:45.618Z,411.70
2022-12-01T05:02:46.503Z,432.30
2022-12-01T05:03:45.610Z,466.50
2022-12-01T05:04:50.426Z,419.00
2022-12-01T05:05:47.481Z,421.70
2022-12-01T05:06:45.501Z,303.30
2022-12-01T05:07:45.543Z,393.50
2022-12-01T05:08:56.200Z,401.20
2022-12-01T05:09:53.214Z,453.00
2022-12-01T05:11:20.798Z,478.30
2022-12-01T05:11:47.141Z,427.40
2022-12-01T05:12:47.881Z,518.00
2022-12-01T05:13:46.470Z,461.30
2022-12-01T05:15:09.929Z,368.30
2022-12-01T05:15:52.524Z,353.40
2022-12-01T05:17:05.553Z,453.80
2022-12-01T05:17:45.342Z,355.80
2022-12-01T05:19:01.421Z,381.80
2022-12-01T05:19:45.720Z,365.00
2022-12-01T05:21:12.242Z,370.10
2022-12-01T05:21:46.460Z,500.90
2022-12-01T05:23:04.758Z,427.60
2022-12-01T05:24:34.050Z,418.90
2022-12-01T05:24:56.123Z,475.40
2022-12-01T05:26:22.671Z,466.00
2022-12-01T05:26:46.507Z,419.30
2022-12-01T05:28:09.424Z,428.00
2022-12-01T05:29:46.981Z,543.60
2022-12-01T05:29:58.254Z,398.90
2022-12-01T05:31:02.537Z,397.30
2022-12-01T05:32:06.753Z,405.80
2022-12-01T05:32:52.353Z,387.80
2022-12-01T05:34:44.284Z,411.70
2022-12-01T05:36:19.116Z,537.20
2022-12-01T05:36:24.069Z,460.30
2022-12-01T05:37:33.235Z,466.70
2022-12-01T05:39:04.994Z,500.70
2022-12-01T05:39:29.873Z,392.00
2022-12-01T05:40:33.628Z,421.00
2022-12-01T05:41:54.485Z,401.60
2022-12-01T05:42:24.546Z,375.10
2022-12-01T05:44:13.936Z,414.70
2022-12-01T05:44:28.963Z,425.60
2022-12-01T05:45:28.590Z,342.50
2022-12-01T05:47:04.458Z,342.30
2022-12-01T05:47:36.596Z,502.00
2022-12-01T05:48:28.557Z,404.10
2022-12-01T05:49:23.919Z,399.00
2022-12-01T05:50:33.386Z,392.90
2022-12-01T05:51:48.570Z,335.30
2022-12-01T05:53:36.936Z,304.00
2022-12-01T05:54:11.647Z,393.10
2022-12-01T05:55:21.648Z,386.00
2022-12-01T06:09:06.465Z,470.90
2022-12-01T06:09:11.234Z,292.50
2022-12-01T06:10:11.213Z,281.70
2022-12-01T06:11:11.199Z,270.30
2022-12-01T06:12:11.185Z,271.10
2022-12-01T06:13:11.180Z,290.50
2022-12-01T06:14:11.191Z,289.50
2022-12-01T06:15:11.400Z,285.10
2022-12-01T06:16:11.141Z,264.70
2022-12-01T06:17:11.121Z,247.00
2022-12-01T06:18:11.119Z,256.70
2022-12-01T06:19:11.368Z,267.50
2022-12-01T06:20:11.084Z,261.80
2022-12-01T06:21:11.089Z,279.40
2022-12-01T06:22:11.071Z,266.60
2022-12-01T06:23:11.052Z,271.90
2022-12-01T06:24:11.041Z,282.50
2022-12-01T06:25:11.025Z,275.00
2022-12-01T06:26:11.007Z,294.90
2022-12-01T06:27:11.012Z,291.40
2022-12-01T06:28:11.004Z,282.50
2022-12-01T06:29:10.981Z,288.60
2022-12-01T06:30:10.953Z,281.90
2022-12-01T06:31:10.942Z,305.60
2022-12-01T06:32:11.000Z,308.10
2022-12-01T06:33:10.923Z,291.20
2022-12-01T06:34:10.922Z,295.00
2022-12-01T06:35:10.914Z,290.80
2022-12-01T06:36:10.891Z,280.80
2022-12-01T06:37:10.873Z,274.40
2022-12-01T06:38:10.852Z,287.10
2022-12-01T06:39:10.860Z,287.40
2022-12-01T06:40:11.079Z,269.00
2022-12-01T06:41:10.832Z,277.20
2022-12-01T06:42:10.843Z,276.10
2022-12-01T06:43:10.845Z,285.60
2022-12-01T06:44:10.794Z,279.30
2022-12-01T06:45:10.784Z,281.70
2022-12-01T06:46:10.778Z,277.60
2022-12-01T06:47:10.753Z,288.60
2022-12-01T06:48:10.745Z,264.10
2022-12-01T06:49:10.744Z,274.20
2022-12-01T06:50:10.965Z,287.70
2022-12-01T06:51:11.129Z,310.00
2022-12-01T06:52:10.685Z,284.50
2022-12-01T06:53:10.679Z,288.10
2022-12-01T06:54:10.687Z,328.70
2022-12-01T06:55:10.646Z,340.60
2022-12-01T06:56:10.639Z,321.00
2022-12-01T06:57:10.645Z,317.30
2022-12-01T06:58:10.606Z,312.40
2022-12-01T06:59:10.607Z,320.80
2022-12-01T07:00:10.586Z,331.70
2022-12-01T07:01:10.685Z,344.10
2022-12-01T07:02:10.604Z,318.50
2022-12-01T07:03:11.517Z,343.80
2022-12-01T07:04:10.549Z,319.70
2022-12-01T07:05:10.546Z,333.80
2022-12-01T07:06:10.517Z,349.50
2022-12-01T07:07:10.507Z,363.70
2022-12-01T07:08:10.537Z,359.10
2022-12-01T07:09:10.505Z,322.50
2022-12-01T07:10:10.467Z,338.70
2022-12-01T07:11:10.467Z,362.60
2022-12-01T07:12:10.459Z,312.40
2022-12-01T07:13:10.434Z,356.20
2022-12-01T07:14:10.418Z,349.60
2022-12-01T07:15:10.410Z,397.50
2022-12-01T07:16:10.500Z,367.60
2022-12-01T07:17:10.698Z,370.00
2022-12-01T07:18:10.376Z,418.40
2022-12-01T07:19:10.370Z,389.50
2022-12-01T07:20:10.339Z,344.40
2022-12-01T07:21:10.417Z,386.90
2022-12-01T07:22:10.310Z,403.30
2022-12-01T07:23:10.307Z,409.40
2022-12-01T07:24:10.300Z,411.70
2022-12-01T07:25:10.289Z,433.00
2022-12-01T07:26:10.270Z,443.30
2022-12-01T07:27:10.260Z,452.30
2022-12-01T07:28:10.260Z,405.80
2022-12-01T07:29:10.491Z,427.10
2022-12-01T07:30:10.220Z,424.40
2022-12-01T07:31:10.253Z,464.30
2022-12-01T07:32:10.221Z,388.90
2022-12-01T07:33:10.181Z,381.60
2022-12-01T07:34:10.171Z,379.90
2022-12-01T07:35:10.153Z,323.10
2022-12-01T07:36:10.134Z,408.20
2022-12-01T07:37:10.132Z,418.90
2022-12-01T07:38:10.111Z,391.80
2022-12-01T07:39:10.116Z,389.00
2022-12-01T07:40:10.092Z,411.30
2022-12-01T07:41:10.075Z,454.20
2022-12-01T07:42:10.064Z,437.20
2022-12-01T07:43:10.058Z,431.90
2022-12-01T07:44:10.051Z,500.70
2022-12-01T07:45:10.038Z,457.40
2022-12-01T07:46:10.077Z,456.00
2022-12-01T07:47:10.010Z,451.50
2022-12-01T07:48:09.997Z,450.90
2022-12-01T07:49:10.006Z,410.50
2022-12-01T07:50:09.964Z,438.00
2022-12-01T07:51:09.954Z,406.30
2022-12-01T07:52:09.936Z,406.30
2022-12-01T07:53:09.924Z,398.60
2022-12-01T07:54:09.937Z,420.40
2022-12-01T07:55:09.914Z,412.50
2022-12-01T07:56:09.902Z,436.30
2022-12-01T07:57:09.880Z,394.10
2022-12-01T07:58:09.881Z,422.20
2022-12-01T07:59:09.865Z,406.00
2022-12-01T08:00:09.874Z,387.60
2022-12-01T08:01:09.922Z,392.30
2022-12-01T08:02:09.895Z,375.40
2022-12-01T08:03:09.837Z,372.40
2022-12-01T08:04:09.816Z,363.80
2022-12-01T08:05:09.825Z,359.50
2022-12-01T08:06:09.764Z,346.60
2022-12-01T08:07:09.785Z,358.40
2022-12-01T08:08:09.798Z,362.50
2022-12-01T08:09:09.736Z,356.50
2022-12-01T08:10:09.717Z,364.40
2022-12-01T08:11:09.708Z,350.90
2022-12-01T08:12:09.686Z,341.00
2022-12-01T08:13:12.911Z,335.60
2022-12-01T08:14:10.695Z,328.60
2022-12-01T08:15:09.700Z,305.40
2022-12-01T08:16:09.692Z,321.30
2022-12-01T08:17:09.626Z,337.40
2022-12-01T08:18:09.631Z,347.40
2022-12-01T08:19:09.617Z,335.60
2022-12-01T08:20:09.602Z,322.90
2022-12-01T08:21:09.592Z,321.30
2022-12-01T08:22:09.573Z,341.20
2022-12-01T08:23:09.572Z,347.70
2022-12-01T08:24:09.574Z,333.60
2022-12-01T08:25:09.538Z,349.70
2022-12-01T08:26:09.526Z,347.10
2022-12-01T08:27:09.518Z,374.40
2022-12-01T08:28:09.498Z,370.50
2022-12-01T08:29:09.487Z,362.20
2022-12-01T08:30:09.468Z,363.00
2022-12-01T08:31:09.552Z,359.70
2022-12-01T08:32:09.449Z,351.50
2022-12-01T08:33:10.394Z,361.00
2022-12-01T08:34:09.427Z,351.70
2022-12-01T08:35:09.409Z,353.10
2022-12-01T08:36:09.396Z,360.70
2022-12-01T08:37:09.395Z,361.00
2022-12-01T08:38:09.377Z,365.90
2022-12-01T08:39:09.379Z,372.50
2022-12-01T08:40:09.445Z,341.20
2022-12-01T08:41:09.350Z,361.10
2022-12-01T08:42:09.581Z,354.10
2022-12-01T08:43:15.247Z,358.90
2022-12-01T08:44:11.365Z,351.90
2022-12-01T08:45:09.288Z,350.30
2022-12-01T08:46:09.336Z,322.80
2022-12-01T08:47:10.471Z,338.70
2022-12-01T08:48:09.271Z,349.90
2022-12-01T08:49:09.273Z,351.80
2022-12-01T08:50:09.224Z,335.70
2022-12-01T08:51:09.211Z,319.60
2022-12-01T08:52:09.210Z,329.10
2022-12-01T08:53:09.189Z,314.70
2022-12-01T08:54:09.203Z,333.40
2022-12-01T08:55:09.192Z,323.50
2022-12-01T08:56:09.139Z,310.60
2022-12-01T08:57:09.179Z,300.50
2022-12-01T08:58:09.122Z,299.70
2022-12-01T08:59:09.133Z,293.90
2022-12-01T09:00:09.094Z,281.10
2022-12-01T09:01:10.055Z,293.30
2022-12-01T09:02:09.190Z,305.30
2022-12-01T09:03:09.139Z,307.10
2022-12-01T09:04:09.287Z,291.70
2022-12-01T09:05:09.042Z,301.40
2022-12-01T09:06:09.014Z,301.90
2022-12-01T09:07:09.014Z,292.60
2022-12-01T09:08:09.067Z,298.10
2022-12-01T09:09:09.004Z,278.90
2022-12-01T09:10:08.966Z,284.60
2022-12-01T09:11:08.953Z,294.20
2022-12-01T09:12:08.935Z,291.40
2022-12-01T09:13:08.933Z,285.50
2022-12-01T09:14:08.924Z,291.20
2022-12-01T09:15:08.923Z,286.30
2022-12-01T09:16:08.973Z,287.20
2022-12-01T09:17:08.885Z,280.10
2022-12-01T09:18:08.874Z,282.90
2022-12-01T09:19:08.880Z,295.00
2022-12-01T09:20:08.849Z,300.50
2022-12-01T09:21:08.834Z,294.70
2022-12-01T09:22:08.818Z,294.70
2022-12-01T09:23:08.823Z,290.80
2022-12-01T09:24:09.027Z,276.70
2022-12-01T09:25:08.786Z,274.40
2022-12-01T09:26:13.245Z,284.70
2022-12-01T09:27:09.757Z,288.10
2022-12-01T09:28:08.736Z,270.20
2022-12-01T09:29:08.735Z,281.40
2022-12-01T09:30:09.667Z,275.60
2022-12-01T09:31:09.082Z,276.40
2022-12-01T09:32:09.637Z,290.20
2022-12-01T09:33:08.686Z,285.60
2022-12-01T09:34:08.676Z,284.00
2022-12-01T09:35:08.659Z,268.10
2022-12-01T09:36:09.596Z,274.50
2022-12-01T09:37:08.664Z,274.70
2022-12-01T09:38:08.637Z,259.40
2022-12-01T09:39:08.607Z,269.70
2022-12-01T09:40:08.595Z,278.20
2022-12-01T09:41:08.578Z,264.70
2022-12-01T09:42:09.456Z,261.00
2022-12-01T09:43:08.586Z,254.40
2022-12-01T09:44:08.579Z,259.80
2022-12-01T09:45:08.538Z,255.10
2022-12-01T09:46:08.540Z,247.70
2022-12-01T09:47:08.583Z,242.60
2022-12-01T09:48:08.509Z,253.80
2022-12-01T09:49:08.479Z,241.60
2022-12-01T09:50:08.459Z,245.30
2022-12-01T09:51:08.470Z,245.40
2022-12-01T09:52:08.430Z,256.10
2022-12-01T09:53:08.433Z,247.10
2022-12-01T09:54:08.411Z,261.60
2022-12-01T09:55:08.400Z,258.40
2022-12-01T09:56:12.843Z,254.00
2022-12-01T09:57:08.650Z,259.20
2022-12-01T09:58:08.380Z,255.60
2022-12-01T09:59:08.358Z,244.90
2022-12-01T10:00:08.340Z,248.80
2022-12-01T10:01:08.367Z,245.10
2022-12-01T10:02:08.374Z,237.40
2022-12-01T10:03:08.291Z,243.70
2022-12-01T10:04:08.294Z,228.00
2022-12-01T10:05:08.296Z,227.80
2022-12-01T10:07:09.240Z,236.90
2022-12-01T10:08:08.317Z,242.30
2022-12-01T10:09:08.221Z,242.90
2022-12-01T10:10:08.852Z,250.90
2022-12-01T10:11:08.182Z,250.60
2022-12-01T10:12:08.190Z,245.50
2022-12-01T10:13:08.163Z,260.40
2022-12-01T10:14:08.155Z,279.90
2022-12-01T10:15:08.133Z,259.80
2022-12-01T10:16:08.166Z,250.20
2022-12-01T10:17:08.104Z,261.70
2022-12-01T10:18:08.093Z,265.80
2022-12-01T10:19:08.094Z,253.60
2022-12-01T10:20:08.065Z,262.10
2022-12-01T10:21:08.064Z,260.60
2022-12-01T10:22:08.054Z,267.40
2022-12-01T10:23:08.026Z,271.30
2022-12-01T10:24:08.030Z,280.50
2022-12-01T10:25:08.040Z,273.70
2022-12-01T10:26:08.009Z,262.60
2022-12-01T10:27:07.973Z,274.70
2022-12-01T10:28:07.969Z,266.90
2022-12-01T10:29:07.961Z,277.70
2022-12-01T10:30:07.945Z,266.10
2022-12-01T10:31:07.986Z,276.20
2022-12-01T10:32:07.912Z,281.80
2022-12-01T10:33:07.905Z,293.70
2022-12-01T10:34:07.925Z,289.30
2022-12-01T10:35:07.877Z,284.30
2022-12-01T10:36:07.863Z,298.20
2022-12-01T10:37:07.857Z,276.30
2022-12-01T10:38:07.844Z,274.60
2022-12-01T10:39:07.827Z,293.30
2022-12-01T10:40:07.807Z,296.00
2022-12-01T10:41:07.786Z,292.60
2022-12-01T10:42:07.793Z,302.70
2022-12-01T10:43:07.778Z,279.70
2022-12-01T10:44:07.766Z,278.30
2022-12-01T10:45:07.754Z,258.40
2022-12-01T10:46:07.766Z,268.20
2022-12-01T10:47:07.715Z,274.60
2022-12-01T10:48:07.709Z,251.70
2022-12-01T10:49:07.703Z,262.30
2022-12-01T10:50:07.681Z,255.00
2022-12-01T10:51:07.663Z,253.90
2022-12-01T10:52:07.651Z,256.00
2022-12-01T10:53:07.657Z,258.20
2022-12-01T10:54:07.640Z,272.80
2022-12-01T10:55:07.610Z,280.80
2022-12-01T10:56:07.607Z,297.00
2022-12-01T10:57:07.587Z,270.30
2022-12-01T10:58:09.431Z,293.30
2022-12-01T10:59:07.569Z,301.10
2022-12-01T11:00:07.550Z,293.70
2022-12-01T11:01:07.566Z,274.00
2022-12-01T11:02:08.669Z,278.40
2022-12-01T11:03:07.657Z,284.90
2022-12-01T11:04:07.512Z,263.00
2022-12-01T11:05:07.486Z,275.40
2022-12-01T11:06:07.473Z,267.50
2022-12-01T11:07:07.463Z,264.60
2022-12-01T11:08:07.488Z,272.50
2022-12-01T11:09:07.442Z,275.60
2022-12-01T11:10:07.420Z,295.70
2022-12-01T11:11:07.409Z,300.50
2022-12-01T11:12:07.408Z,308.70
2022-12-01T11:13:07.412Z,300.50
2022-12-01T11:14:07.404Z,285.50
2022-12-01T11:15:07.359Z,275.90
2022-12-01T11:16:07.393Z,291.60
2022-12-01T11:17:07.363Z,293.00
2022-12-01T11:18:07.569Z,275.90
2022-12-01T11:19:07.326Z,272.20
2022-12-01T11:20:07.337Z,278.40
2022-12-01T11:21:07.302Z,266.90
2022-12-01T11:22:07.305Z,263.00
2022-12-01T11:23:07.243Z,243.30
2022-12-01T11:24:07.245Z,244.80
2022-12-01T11:25:07.463Z,232.40
2022-12-01T11:26:07.213Z,234.60
2022-12-01T11:27:07.205Z,239.20
2022-12-01T11:28:07.195Z,242.40
2022-12-01T11:29:07.186Z,232.90
2022-12-01T11:30:07.456Z,235.50
2022-12-01T11:31:07.164Z,234.40
2022-12-01T11:32:07.220Z,226.00
2022-12-01T11:33:07.387Z,240.90
2022-12-01T11:34:07.125Z,244.60
2022-12-01T11:35:07.104Z,245.40
2022-12-01T11:36:08.709Z,240.20
2022-12-01T11:37:07.076Z,242.20
2022-12-01T11:38:28.788Z,248.70
2022-12-01T11:39:08.047Z,238.90
2022-12-01T11:40:07.267Z,243.50
2022-12-01T11:41:07.023Z,248.40
2022-12-01T11:42:07.012Z,254.50
2022-12-01T11:43:06.997Z,250.80
2022-12-01T11:44:22.548Z,255.40
2022-12-01T11:45:07.966Z,247.90
2022-12-01T11:46:07.001Z,255.30
2022-12-01T11:47:22.228Z,241.10
2022-12-01T11:48:08.897Z,241.80
2022-12-01T11:49:06.920Z,236.60
2022-12-01T11:50:06.909Z,248.70
2022-12-01T11:51:06.898Z,240.50
2022-12-01T11:52:06.892Z,252.80
2022-12-01T11:53:06.858Z,231.90
2022-12-01T11:54:06.889Z,225.00
2022-12-01T11:55:10.193Z,231.80
2022-12-01T11:56:06.829Z,233.20
2022-12-01T11:57:32.529Z,244.40
2022-12-01T11:58:07.799Z,242.10
2022-12-01T11:59:06.814Z,247.60
2022-12-01T12:00:06.779Z,232.20
2022-12-01T12:01:06.790Z,233.40
2022-12-01T12:02:07.041Z,225.60
2022-12-01T12:03:06.775Z,239.50
2022-12-01T12:04:06.730Z,237.90
2022-12-01T12:05:06.737Z,236.70
2022-12-01T12:06:38.424Z,238.90
2022-12-01T12:07:07.670Z,231.30
2022-12-01T12:08:06.731Z,236.00
2022-12-01T12:09:06.711Z,233.90
2022-12-01T12:10:06.650Z,223.10
2022-12-01T12:11:06.673Z,218.20
2022-12-01T12:12:06.623Z,225.40
2022-12-01T12:13:06.600Z,234.40
2022-12-01T12:14:06.609Z,220.70
2022-12-01T12:15:06.570Z,221.90
2022-12-01T12:16:06.569Z,225.70
2022-12-01T12:17:06.551Z,227.10
2022-12-01T12:18:06.566Z,223.70
2022-12-01T12:19:06.538Z,221.10
2022-12-01T12:20:08.033Z,225.40
2022-12-01T12:21:06.498Z,206.30
2022-12-01T12:22:06.491Z,221.00
2022-12-01T12:23:06.471Z,215.10
2022-12-01T12:24:06.486Z,220.00
2022-12-01T12:25:06.453Z,216.40
2022-12-01T12:26:06.444Z,227.60
2022-12-01T12:27:06.423Z,213.10
2022-12-01T12:28:06.421Z,207.90
2022-12-01T12:29:12.268Z,218.80
2022-12-01T12:30:07.402Z,227.60
2022-12-01T12:31:06.400Z,213.00
2022-12-01T12:32:06.372Z,216.60
2022-12-01T12:33:06.349Z,221.10
2022-12-01T12:34:06.345Z,229.70
2022-12-01T12:35:06.313Z,244.40
2022-12-01T12:36:06.308Z,234.00
2022-12-01T12:37:06.292Z,238.20
2022-12-01T12:38:06.304Z,245.90
2022-12-01T12:39:06.514Z,227.00
2022-12-01T12:40:06.266Z,228.10
2022-12-01T12:41:06.234Z,230.10
2022-12-01T12:42:06.243Z,248.70
2022-12-01T12:43:06.237Z,239.90
2022-12-01T12:44:06.215Z,255.60
2022-12-01T12:45:06.197Z,250.80